createdAt,value
2023-01-28T00:02:01.530Z,63.24
2023-01-28T00:04:29.520Z,62.90
2023-01-28T00:06:57.448Z,62.44
2023-01-28T00:09:25.477Z,62.08
2023-01-28T00:11:53.326Z,61.69
2023-01-28T00:14:21.220Z,61.30
2023-01-28T00:16:49.094Z,60.97
2023-01-28T00:19:17.199Z,60.72
2023-01-28T00:21:45.024Z,60.46
2023-01-28T00:24:12.917Z,60.26
2023-01-28T00:26:41.497Z,60.07
2023-01-28T00:29:10.152Z,59.04
2023-01-28T00:31:38.048Z,57.55
2023-01-28T00:34:06.142Z,57.79
2023-01-28T00:36:34.066Z,58.74
2023-01-28T00:39:02.066Z,59.38
2023-01-28T00:41:31.232Z,60.03
2023-01-28T00:43:59.773Z,61.00
2023-01-28T00:46:28.086Z,63.14
2023-01-28T00:48:56.269Z,65.43
2023-01-28T00:51:24.444Z,65.71
2023-01-28T00:53:53.051Z,65.26
2023-01-28T00:56:21.199Z,64.49
2023-01-28T00:58:49.105Z,64.01
2023-01-28T01:01:20.035Z,63.31
2023-01-28T01:03:48.581Z,62.72
2023-01-28T01:06:16.496Z,62.34
2023-01-28T01:08:50.642Z,61.98
2023-01-28T01:11:19.253Z,61.75
2023-01-28T01:13:55.649Z,61.36
2023-01-28T01:16:28.201Z,61.11
2023-01-28T01:18:57.104Z,60.95
2023-01-28T01:21:27.395Z,60.76
2023-01-28T01:23:55.924Z,60.57
2023-01-28T01:26:24.260Z,60.23
2023-01-28T01:28:52.321Z,60.04
2023-01-28T01:31:21.830Z,59.10
2023-01-28T01:33:52.367Z,57.65
2023-01-28T01:36:22.271Z,57.66
2023-01-28T01:38:55.407Z,58.59
2023-01-28T01:41:30.749Z,59.05
2023-01-28T01:44:02.072Z,60.18
2023-01-28T01:46:30.125Z,60.94
2023-01-28T01:49:06.696Z,62.33
2023-01-28T01:51:36.484Z,64.79
2023-01-28T01:54:06.535Z,65.24
2023-01-28T01:56:41.335Z,64.76
2023-01-28T01:59:18.135Z,64.07
2023-01-28T02:01:46.243Z,63.85
2023-01-28T02:04:29.175Z,63.97
2023-01-28T02:07:00.227Z,62.75
2023-01-28T02:09:31.103Z,62.45
2023-01-28T02:12:08.723Z,62.08
2023-01-28T02:14:41.884Z,61.74
2023-01-28T02:17:10.382Z,61.48
2023-01-28T02:19:48.475Z,61.08
2023-01-28T02:22:35.089Z,60.93
2023-01-28T02:25:24.198Z,60.73
2023-01-28T02:28:15.350Z,61.10
2023-01-28T02:30:52.107Z,60.64
2023-01-28T02:33:38.326Z,60.20
2023-01-28T02:36:30.404Z,60.06
2023-01-28T02:39:03.467Z,58.64
2023-01-28T02:41:47.824Z,57.33
2023-01-28T02:44:15.968Z,57.58
2023-01-28T02:47:02.596Z,58.91
2023-01-28T02:49:39.756Z,61.43
2023-01-28T02:53:04.703Z,61.39
2023-01-28T02:56:02.529Z,64.81
2023-01-28T02:58:49.467Z,65.15
2023-01-28T03:01:32.181Z,65.25
2023-01-28T03:04:05.587Z,64.74
2023-01-28T03:06:40.085Z,64.09
2023-01-28T03:09:27.349Z,63.64
2023-01-28T03:12:19.782Z,62.81
2023-01-28T03:15:15.118Z,62.57
2023-01-28T03:18:11.912Z,62.16
2023-01-28T03:21:17.964Z,61.78
2023-01-28T03:24:15.316Z,62.38
2023-01-28T03:27:22.869Z,61.58
2023-01-28T03:30:20.178Z,61.46
2023-01-28T03:33:07.936Z,61.00
2023-01-28T03:35:55.895Z,60.63
2023-01-28T03:38:34.164Z,60.43
2023-01-28T03:41:03.927Z,60.30
2023-01-28T03:43:32.643Z,60.05
2023-01-28T03:46:01.108Z,59.92
2023-01-28T03:48:29.817Z,58.90
2023-01-28T03:51:00.570Z,57.60
2023-01-28T03:53:29.405Z,57.76
2023-01-28T03:55:58.835Z,58.49
2023-01-28T03:58:46.814Z,59.22
2023-01-28T04:01:15.561Z,59.98
2023-01-28T04:03:43.888Z,61.09
2023-01-28T04:06:15.944Z,63.17
2023-01-28T04:08:59.760Z,65.69
2023-01-28T04:11:30.501Z,65.54
2023-01-28T04:13:59.879Z,65.07
2023-01-28T04:16:34.156Z,64.42
2023-01-28T04:19:01.990Z,63.88
2023-01-28T04:21:30.645Z,63.45
2023-01-28T04:23:59.870Z,63.02
2023-01-28T04:26:29.258Z,62.68
2023-01-28T04:28:57.413Z,62.41
2023-01-28T04:31:25.816Z,62.05
2023-01-28T04:34:13.999Z,61.89
2023-01-28T04:37:17.553Z,61.71
2023-01-28T04:40:07.638Z,61.17
2023-01-28T04:42:57.616Z,60.88
2023-01-28T04:45:38.275Z,60.83
2023-01-28T04:48:24.931Z,60.62
2023-01-28T04:51:11.507Z,60.44
2023-01-28T04:53:47.091Z,60.30
2023-01-28T04:56:26.585Z,60.14
2023-01-28T04:58:54.853Z,59.94
2023-01-28T05:01:24.821Z,59.06
2023-01-28T05:03:53.478Z,57.66
2023-01-28T05:06:25.655Z,57.94
2023-01-28T05:09:00.967Z,58.71
2023-01-28T05:11:29.958Z,60.27
2023-01-28T05:14:02.728Z,60.57
2023-01-28T05:16:36.534Z,61.32
2023-01-28T05:19:05.083Z,62.97
2023-01-28T05:21:42.192Z,65.31
2023-01-28T05:24:19.721Z,65.99
2023-01-28T05:26:47.805Z,65.71
2023-01-28T05:29:15.848Z,65.05
2023-01-28T05:31:43.781Z,64.52
2023-01-28T05:34:12.149Z,64.04
2023-01-28T05:36:41.419Z,63.73
2023-01-28T05:39:25.488Z,62.80
2023-01-28T05:41:53.351Z,62.83
2023-01-28T05:44:21.252Z,62.65
2023-01-28T05:47:04.720Z,62.48
2023-01-28T05:49:49.786Z,62.16
2023-01-28T05:52:40.875Z,61.97
2023-01-28T05:55:14.989Z,61.68
2023-01-28T05:57:44.635Z,61.49
2023-01-28T06:00:16.373Z,61.30
2023-01-28T06:02:45.481Z,61.22
2023-01-28T06:05:16.002Z,61.01
2023-01-28T06:07:45.884Z,60.83
2023-01-28T06:10:14.879Z,60.81
2023-01-28T06:12:43.050Z,60.61
2023-01-28T06:15:29.936Z,60.49
2023-01-28T06:18:03.799Z,60.37
2023-01-28T06:20:34.624Z,60.30
2023-01-28T06:23:02.957Z,60.21
2023-01-28T06:25:30.890Z,59.93
2023-01-28T06:28:03.652Z,59.85
2023-01-28T06:30:31.738Z,59.04
2023-01-28T06:32:59.817Z,57.76
2023-01-28T06:35:27.846Z,58.16
2023-01-28T06:37:55.813Z,59.99
2023-01-28T06:40:25.153Z,60.44
2023-01-28T06:42:53.083Z,61.13
2023-01-28T06:45:20.895Z,62.84
2023-01-28T06:47:48.727Z,66.05
2023-01-28T06:50:17.723Z,65.89
2023-01-28T06:52:45.897Z,65.46
2023-01-28T06:55:13.760Z,64.75
2023-01-28T06:57:42.389Z,64.11
2023-01-28T07:00:13.534Z,63.91
2023-01-28T07:02:42.399Z,63.32
2023-01-28T07:05:11.049Z,63.01
2023-01-28T07:07:41.665Z,62.71
2023-01-28T07:10:11.197Z,62.24
2023-01-28T07:12:39.494Z,62.00
2023-01-28T07:15:08.862Z,61.63
2023-01-28T07:17:43.814Z,61.37
2023-01-28T07:20:15.490Z,61.24
2023-01-28T07:22:45.242Z,60.83
2023-01-28T07:25:14.770Z,60.62
2023-01-28T07:27:52.387Z,60.53
2023-01-28T07:30:21.987Z,60.45
2023-01-28T07:32:56.932Z,60.35
2023-01-28T07:35:25.790Z,60.20
2023-01-28T07:37:59.318Z,59.95
2023-01-28T07:40:28.850Z,59.58
2023-01-28T07:42:57.071Z,58.66
2023-01-28T07:45:26.286Z,57.65
2023-01-28T07:47:58.821Z,58.09
2023-01-28T07:50:29.211Z,59.10
2023-01-28T07:52:58.084Z,60.32
2023-01-28T07:55:28.776Z,61.36
2023-01-28T07:58:00.760Z,62.96
2023-01-28T08:00:31.057Z,65.13
2023-01-28T08:03:05.289Z,64.85
2023-01-28T08:05:39.370Z,64.19
2023-01-28T08:08:09.225Z,63.78
2023-01-28T08:10:37.955Z,62.75
2023-01-28T08:13:07.244Z,61.81
2023-01-28T08:15:35.657Z,62.08
2023-01-28T08:18:05.386Z,61.90
2023-01-28T08:20:33.472Z,61.52
2023-01-28T08:23:11.446Z,61.18
2023-01-28T08:25:39.786Z,60.93
2023-01-28T08:28:08.445Z,60.79
2023-01-28T08:30:39.139Z,60.18
2023-01-28T08:33:09.532Z,60.00
2023-01-28T08:35:38.316Z,59.92
2023-01-28T08:38:08.288Z,59.94
2023-01-28T08:40:36.252Z,59.93
2023-01-28T08:43:04.747Z,59.90
2023-01-28T08:45:33.027Z,59.74
2023-01-28T08:48:04.255Z,58.74
2023-01-28T08:50:34.987Z,57.18
2023-01-28T08:53:21.101Z,57.74
2023-01-28T08:55:49.003Z,59.53
2023-01-28T08:58:18.608Z,60.14
2023-01-28T09:00:47.337Z,61.41
2023-01-28T09:03:15.874Z,62.43
2023-01-28T09:05:44.318Z,64.74
2023-01-28T09:08:14.777Z,64.79
2023-01-28T09:10:43.188Z,63.83
2023-01-28T09:13:14.191Z,63.56
2023-01-28T09:15:43.231Z,63.27
2023-01-28T09:18:11.491Z,62.91
2023-01-28T09:20:39.390Z,62.35
2023-01-28T09:23:07.794Z,62.02
2023-01-28T09:25:38.763Z,61.25
2023-01-28T09:28:07.641Z,60.88
2023-01-28T09:30:37.368Z,60.66
2023-01-28T09:33:06.909Z,60.28
2023-01-28T09:35:34.938Z,60.29
2023-01-28T09:38:02.877Z,60.19
2023-01-28T09:40:43.479Z,59.93
2023-01-28T09:43:38.953Z,58.56
2023-01-28T09:46:13.098Z,57.80
2023-01-28T09:48:46.587Z,59.08
2023-01-28T09:51:32.124Z,59.84
2023-01-28T09:54:06.002Z,62.57
2023-01-28T09:56:45.690Z,64.07
2023-01-28T09:59:19.638Z,63.70
2023-01-28T10:02:00.668Z,63.47
2023-01-28T10:04:40.394Z,62.77
2023-01-28T10:07:27.817Z,61.95
2023-01-28T10:10:36.082Z,61.39
2023-01-28T10:13:20.847Z,61.18
2023-01-28T10:16:07.964Z,61.20
2023-01-28T10:18:56.858Z,61.12
2023-01-28T10:21:36.592Z,60.82
2023-01-28T10:24:30.837Z,58.85
2023-01-28T10:26:58.978Z,57.60
2023-01-28T10:29:35.173Z,58.47
2023-01-28T10:32:17.341Z,59.00
2023-01-28T10:34:45.171Z,61.15
2023-01-28T10:37:16.461Z,63.20
2023-01-28T10:39:45.747Z,64.11
2023-01-28T10:42:27.033Z,63.99
2023-01-28T10:45:00.825Z,63.55
2023-01-28T10:47:38.835Z,62.90
2023-01-28T10:50:16.199Z,61.84
2023-01-28T10:53:00.246Z,60.91
2023-01-28T10:55:32.019Z,60.51
2023-01-28T10:58:00.610Z,60.52
2023-01-28T11:00:33.595Z,60.58
2023-01-28T11:03:01.501Z,60.26
2023-01-28T11:05:31.331Z,59.92
2023-01-28T11:08:17.287Z,58.85
2023-01-28T11:10:47.375Z,57.85
2023-01-28T11:13:27.262Z,58.84
2023-01-28T11:16:01.092Z,59.94
2023-01-28T11:18:50.200Z,62.90
2023-01-28T11:21:30.134Z,64.32
2023-01-28T11:24:16.779Z,64.18
2023-01-28T11:26:49.797Z,62.84
2023-01-28T11:29:39.113Z,62.33
2023-01-28T11:32:18.140Z,62.10
2023-01-28T11:34:57.397Z,61.13
2023-01-28T11:37:27.730Z,61.06
2023-01-28T11:40:25.950Z,61.23
2023-01-28T11:42:59.731Z,61.22
2023-01-28T11:45:52.686Z,60.77
2023-01-28T11:48:34.635Z,60.59
2023-01-28T11:51:43.653Z,60.35
2023-01-28T11:54:23.414Z,60.08
2023-01-28T11:57:03.265Z,59.75
2023-01-28T12:00:13.867Z,58.61
2023-01-28T12:03:02.374Z,58.69
2023-01-28T12:05:53.592Z,58.60
2023-01-28T12:08:25.996Z,59.25
2023-01-28T12:10:53.836Z,60.53
2023-01-28T12:13:37.700Z,62.14
2023-01-28T12:16:08.940Z,65.05
2023-01-28T12:19:08.135Z,64.79
2023-01-28T12:21:45.454Z,64.75
2023-01-28T12:24:52.646Z,63.67
2023-01-28T12:27:34.505Z,62.94
2023-01-28T12:30:14.914Z,61.69
2023-01-28T12:33:07.489Z,61.90
2023-01-28T12:35:51.299Z,62.11
2023-01-28T12:38:28.522Z,61.77
2023-01-28T12:41:06.530Z,60.89
2023-01-28T12:44:06.882Z,60.79
2023-01-28T12:46:46.913Z,60.55
2023-01-28T12:49:26.265Z,60.45
2023-01-28T12:52:03.247Z,60.19
2023-01-28T12:54:44.051Z,59.87
2023-01-28T12:57:19.205Z,59.59
2023-01-28T12:59:56.400Z,59.88
2023-01-28T13:02:33.494Z,59.72
2023-01-28T13:12:42.376Z,59.93
2023-01-28T13:15:15.874Z,61.49
2023-01-28T13:18:03.178Z,63.88
2023-01-28T13:20:53.009Z,65.44
2023-01-28T13:23:40.114Z,65.09
2023-01-28T13:26:21.832Z,63.53
2023-01-28T13:28:53.851Z,62.93
2023-01-28T13:31:24.384Z,62.63
2023-01-28T13:33:55.226Z,62.32
2023-01-28T13:36:43.896Z,61.43
2023-01-28T13:39:12.147Z,61.29
2023-01-28T13:41:50.918Z,61.04
2023-01-28T13:44:18.669Z,60.53
2023-01-28T13:46:47.501Z,60.79
2023-01-28T13:49:50.227Z,60.96
2023-01-28T13:52:26.268Z,60.70
2023-01-28T13:55:23.786Z,60.84
2023-01-28T13:58:22.595Z,60.66
2023-01-28T14:01:15.344Z,60.43
2023-01-28T14:03:48.746Z,60.31
2023-01-28T14:06:38.018Z,60.01
2023-01-28T14:09:23.934Z,59.98
2023-01-28T14:12:13.076Z,59.66
2023-01-28T14:15:07.869Z,58.63
2023-01-28T14:17:41.005Z,57.13
2023-01-28T14:20:38.001Z,58.53
2023-01-28T14:23:14.691Z,58.98
2023-01-28T14:25:42.417Z,59.99
2023-01-28T14:28:19.830Z,59.11
2023-01-28T14:30:56.764Z,64.37
2023-01-28T14:33:25.559Z,65.93
2023-01-28T14:35:53.442Z,65.50
2023-01-28T14:38:22.808Z,64.81
2023-01-28T14:40:55.683Z,64.07
2023-01-28T14:43:26.989Z,63.25
2023-01-28T14:46:02.184Z,63.08
2023-01-28T14:48:43.817Z,62.77
2023-01-28T14:51:36.792Z,62.34
2023-01-28T14:54:36.291Z,61.83
2023-01-28T14:57:37.835Z,61.82
2023-01-28T15:00:20.185Z,61.40
2023-01-28T15:02:48.272Z,61.06
2023-01-28T15:05:20.380Z,60.78
2023-01-28T15:07:49.882Z,60.46
2023-01-28T15:10:33.338Z,60.06
2023-01-28T15:13:07.325Z,59.85
2023-01-28T15:15:38.358Z,58.43
2023-01-28T15:18:14.320Z,57.33
2023-01-28T15:20:47.469Z,57.37
2023-01-28T15:23:18.217Z,58.16
2023-01-28T15:25:46.963Z,59.46
2023-01-28T15:28:31.594Z,60.36
2023-01-28T15:30:59.970Z,60.99
2023-01-28T15:33:28.103Z,62.90
2023-01-28T15:35:58.163Z,65.49
2023-01-28T15:38:29.823Z,65.16
2023-01-28T15:41:02.806Z,64.83
2023-01-28T15:43:35.070Z,64.21
2023-01-28T15:46:04.240Z,62.85
2023-01-28T15:48:34.598Z,62.15
2023-01-28T15:51:06.003Z,61.75
2023-01-28T15:53:43.247Z,61.20
2023-01-28T15:56:15.999Z,61.32
2023-01-28T15:58:44.232Z,61.12
2023-01-28T16:01:15.619Z,60.96
2023-01-28T16:03:45.890Z,60.53
2023-01-28T16:06:23.901Z,60.11
2023-01-28T16:08:59.003Z,59.85
2023-01-28T16:11:34.871Z,57.72
2023-01-28T16:14:03.830Z,57.01
2023-01-28T16:16:37.193Z,57.50
2023-01-28T16:19:07.353Z,58.01
2023-01-28T16:21:38.618Z,59.23
2023-01-28T16:24:23.866Z,59.70
2023-01-28T16:27:07.423Z,61.36
2023-01-28T16:29:35.788Z,62.86
2023-01-28T16:32:04.420Z,64.44
2023-01-28T16:34:32.280Z,64.24
2023-01-28T16:37:00.315Z,63.71
2023-01-28T16:39:30.078Z,63.07
2023-01-28T16:41:58.395Z,62.52
2023-01-28T16:44:26.259Z,61.76
2023-01-28T16:46:54.352Z,61.73
2023-01-28T16:49:22.179Z,60.57
2023-01-28T16:51:50.392Z,59.05
2023-01-28T16:54:18.336Z,57.81
2023-01-28T16:56:46.955Z,57.90
2023-01-28T16:59:16.547Z,58.60
2023-01-28T17:01:46.035Z,59.77
2023-01-28T17:04:13.979Z,60.79
2023-01-28T17:06:44.653Z,61.39
2023-01-28T17:09:14.712Z,62.55
2023-01-28T17:11:42.957Z,64.56
2023-01-28T17:14:11.616Z,64.33
2023-01-28T17:16:40.269Z,63.38
2023-01-28T17:19:08.359Z,62.11
2023-01-28T17:21:36.345Z,61.95
2023-01-28T17:24:05.200Z,61.45
2023-01-28T17:26:35.475Z,60.95
2023-01-28T17:29:08.327Z,60.78
2023-01-28T17:31:36.421Z,60.45
2023-01-28T17:34:07.231Z,60.03
2023-01-28T17:36:35.493Z,58.86
2023-01-28T17:39:04.905Z,57.98
2023-01-28T17:41:33.520Z,57.74
2023-01-28T17:44:01.477Z,58.21
2023-01-28T17:46:29.300Z,58.63
2023-01-28T17:48:57.532Z,59.30
2023-01-28T17:51:25.385Z,60.00
2023-01-28T17:53:54.023Z,60.29
2023-01-28T17:56:25.917Z,60.96
2023-01-28T17:59:04.528Z,61.91
2023-01-28T18:01:34.886Z,62.93
2023-01-28T18:04:04.289Z,64.74
2023-01-28T18:06:37.252Z,64.72
2023-01-28T18:09:05.496Z,64.10
2023-01-28T18:11:33.480Z,63.32
2023-01-28T18:14:01.636Z,61.50
2023-01-28T18:16:29.634Z,60.47
2023-01-28T18:18:57.796Z,58.67
2023-01-28T18:21:53.511Z,57.90
2023-01-28T18:24:27.306Z,57.99
2023-01-28T18:34:31.776Z,61.93
2023-01-28T18:37:03.687Z,63.17
2023-01-28T18:39:31.629Z,63.57
2023-01-28T18:42:00.392Z,63.27
2023-01-28T18:44:30.247Z,62.75
2023-01-28T18:46:58.692Z,61.77
2023-01-28T18:49:26.893Z,60.11
2023-01-28T18:51:54.865Z,59.98
2023-01-28T18:54:24.055Z,58.95
2023-01-28T18:56:51.962Z,56.99
2023-01-28T18:59:19.995Z,56.98
2023-01-28T19:01:48.075Z,56.40
2023-01-28T19:04:17.270Z,58.31
2023-01-28T19:06:46.748Z,58.70
2023-01-28T19:09:16.457Z,59.00
2023-01-28T19:11:44.965Z,58.94
2023-01-28T19:14:14.771Z,60.55
2023-01-28T19:16:43.388Z,60.70
2023-01-28T19:19:12.146Z,60.94
2023-01-28T19:21:40.266Z,62.91
2023-01-28T19:24:11.750Z,64.12
2023-01-28T19:26:40.281Z,64.28
2023-01-28T19:29:09.811Z,63.43
2023-01-28T19:31:39.151Z,62.34
2023-01-28T19:34:08.576Z,61.08
2023-01-28T19:36:37.304Z,60.65
2023-01-28T19:39:07.692Z,60.08
2023-01-28T19:41:36.767Z,58.60
2023-01-28T19:44:05.538Z,56.27
2023-01-28T19:46:36.003Z,56.43
2023-01-28T19:49:05.906Z,57.22
2023-01-28T19:51:33.939Z,57.90
2023-01-28T19:54:01.760Z,58.29
2023-01-28T19:56:30.102Z,59.30
2023-01-28T19:58:57.942Z,59.69
2023-01-28T20:01:30.189Z,59.62
2023-01-28T20:04:00.443Z,59.81
2023-01-28T20:06:30.687Z,59.94
2023-01-28T20:09:07.975Z,60.69
2023-01-28T20:11:36.305Z,60.59
2023-01-28T20:14:04.242Z,61.23
2023-01-28T20:16:33.948Z,61.71
2023-01-28T20:19:05.107Z,64.42
2023-01-28T20:21:33.914Z,64.10
2023-01-28T20:24:03.497Z,61.23
2023-01-28T20:26:34.091Z,59.48
2023-01-28T20:29:08.279Z,58.64
2023-01-28T20:31:37.323Z,56.97
2023-01-28T20:34:06.088Z,57.43
2023-01-28T20:36:34.346Z,57.95
2023-01-28T20:39:02.263Z,58.44
2023-01-28T20:41:30.400Z,58.48
2023-01-28T20:43:58.330Z,58.98
2023-01-28T20:46:29.276Z,59.75
2023-01-28T20:48:59.368Z,60.19
2023-01-28T20:51:29.081Z,60.61
2023-01-28T20:53:58.800Z,60.69
2023-01-28T20:56:28.318Z,61.51
2023-01-28T21:03:30.674Z,61.63
2023-01-28T21:05:58.658Z,54.79
2023-01-28T21:08:26.773Z,53.57
2023-01-28T21:10:55.058Z,53.93
2023-01-28T21:13:22.829Z,55.53
2023-01-28T21:15:55.840Z,56.58
2023-01-28T21:18:24.985Z,57.00
2023-01-28T21:20:56.662Z,57.26
2023-01-28T21:23:25.521Z,58.12
2023-01-28T21:25:53.350Z,58.05
2023-01-28T21:28:21.247Z,58.98
2023-01-28T21:30:49.071Z,59.47
2023-01-28T21:33:16.886Z,59.04
2023-01-28T21:35:44.923Z,58.50
2023-01-28T21:38:12.721Z,60.16
2023-01-28T21:40:40.580Z,60.68
2023-01-28T21:43:10.108Z,61.24
2023-01-28T21:45:38.671Z,64.76
2023-01-28T21:48:07.138Z,68.04
2023-01-28T21:50:55.125Z,62.52
2023-01-28T21:53:22.918Z,60.35
2023-01-28T21:55:50.799Z,57.52
2023-01-28T21:58:36.960Z,55.34
2023-01-28T22:01:09.021Z,56.57
2023-01-28T22:03:36.834Z,57.19
2023-01-28T22:06:04.903Z,57.40
2023-01-28T22:08:32.971Z,58.38
2023-01-28T22:11:04.761Z,57.61
2023-01-28T22:13:32.924Z,57.74
2023-01-28T22:16:00.851Z,58.12
2023-01-28T22:18:28.747Z,58.58
2023-01-28T22:21:02.598Z,58.75
2023-01-28T22:23:30.746Z,59.23
2023-01-28T22:25:59.524Z,59.44
2023-01-28T22:28:28.322Z,58.88
2023-01-28T22:31:08.356Z,59.61
2023-01-28T22:33:36.716Z,60.01
2023-01-28T22:36:07.464Z,59.95
2023-01-28T22:38:36.936Z,60.57
2023-01-28T22:41:09.705Z,60.29
2023-01-28T22:43:37.527Z,61.33
2023-01-28T22:46:06.319Z,64.86
2023-01-28T22:48:36.571Z,69.02
2023-01-28T22:51:06.851Z,65.33
2023-01-28T22:53:34.729Z,58.10
2023-01-28T22:56:02.783Z,52.85
2023-01-28T22:58:31.813Z,51.81
2023-01-28T23:01:00.037Z,52.30
2023-01-28T23:03:27.973Z,52.87
2023-01-28T23:06:00.429Z,53.73
2023-01-28T23:08:29.172Z,53.92
2023-01-28T23:11:00.361Z,54.64
2023-01-28T23:13:52.378Z,55.11
2023-01-28T23:16:38.989Z,56.32
2023-01-28T23:19:26.817Z,56.94
2023-01-28T23:22:13.200Z,57.84
2023-01-28T23:24:41.049Z,58.15
2023-01-28T23:27:09.312Z,58.15
2023-01-28T23:29:37.233Z,58.73
2023-01-28T23:32:09.880Z,60.09
2023-01-28T23:34:40.449Z,59.88
2023-01-28T23:37:10.009Z,59.87
2023-01-28T23:39:39.091Z,59.96
2023-01-28T23:42:26.579Z,59.09
2023-01-28T23:44:56.584Z,58.79
2023-01-28T23:47:24.666Z,58.43
2023-01-28T23:49:52.572Z,59.38
2023-01-28T23:52:20.479Z,60.27
2023-01-28T23:54:48.306Z,60.49
2023-01-28T23:57:16.442Z,60.59
2023-01-28T23:59:44.216Z,60.64
